Time;durP1;ratioP1;P1;durP2;ratioP2;P2;SDS_P1;SDS_P2;PMS_P1;PMS_P2;Temp;Humidity;BMP_temperature;BMP_pressure;BME280_temperature;BME280_humidity;BME280_pressure;Samples;Min_cycle;Max_cycle;Signal;HPM_P1;HPM_P2
2024/04/19 00:01:42;;;;;;;5.75;1.25;;;;;;;14.44;40.03;98248.59;6587537;21;19999;-89
2024/04/19 00:04:08;;;;;;;1.80;1.40;;;;;;;14.46;39.97;98248.44;6587470;21;19996;-88
2024/04/19 00:06:34;;;;;;;2.67;1.42;;;;;;;14.45;39.64;98252.88;6543441;21;19991;-88
2024/04/19 00:09:00;;;;;;;2.70;1.30;;;;;;;14.47;39.93;98252.72;6588288;21;20024;-88
2024/04/19 00:11:25;;;;;;;2.10;1.30;;;;;;;14.47;39.26;98253.53;6586992;21;20008;-88
2024/04/19 00:13:51;;;;;;;1.30;1.10;;;;;;;14.52;39.30;98262.75;6544567;21;19995;-89
2024/04/19 00:16:16;;;;;;;3.90;1.40;;;;;;;14.49;39.23;98261.25;6544784;21;19999;-87
2024/04/19 00:18:42;;;;;;;2.83;1.50;;;;;;;14.48;39.00;98262.22;6590945;21;20436;-88
2024/04/19 00:21:08;;;;;;;2.17;1.30;;;;;;;14.48;38.78;98259.59;6590627;21;19991;-88
2024/04/19 00:23:35;;;;;;;2.47;1.50;;;;;;;14.33;39.03;98237.50;6587506;21;19995;-88
2024/04/19 00:26:01;;;;;;;2.63;1.40;;;;;;;14.46;39.40;98261.56;6544154;21;20017;-88
2024/04/19 00:28:28;;;;;;;3.85;1.30;;;;;;;14.41;39.43;98254.16;6587496;21;20027;-88
2024/04/19 00:30:57;;;;;;;2.00;1.30;;;;;;;14.41;39.78;98248.06;6588824;21;19992;-89
2024/04/19 00:33:23;;;;;;;2.85;1.75;;;;;;;14.34;39.64;98252.28;6588127;21;19999;-88
2024/04/19 00:35:48;;;;;;;2.13;1.60;;;;;;;14.32;39.74;98244.56;6587877;21;20000;-87
2024/04/19 00:38:14;;;;;;;1.60;1.20;;;;;;;14.27;39.86;98247.63;6501336;21;19991;-88
2024/04/19 00:40:40;;;;;;;1.75;1.25;;;;;;;14.29;39.78;98255.34;6501423;21;19992;-90
2024/04/19 00:43:05;;;;;;;3.35;1.38;;;;;;;14.23;40.00;98255.97;6587679;21;19992;-88
2024/04/19 00:45:35;;;;;;;1.52;1.10;;;;;;;14.24;39.81;98258.44;6544335;21;19995;-88
2024/04/19 00:48:19;;;;;;;1.60;1.20;;;;;;;14.20;39.86;98267.63;6543284;21;19996;-88
2024/04/19 00:50:57;;;;;;;2.38;1.48;;;;;;;14.13;39.92;98266.56;6571331;21;20004;-89
2024/04/19 00:53:26;;;;;;;2.30;1.42;;;;;;;14.11;39.99;98268.53;6536168;21;20003;-89
2024/04/19 00:55:56;;;;;;;2.00;1.50;;;;;;;14.08;39.85;98269.63;6492957;21;20042;-89
2024/04/19 00:58:22;;;;;;;2.75;1.40;;;;;;;14.01;40.02;98267.75;6579052;21;20028;-89
2024/04/19 01:00:49;;;;;;;3.15;1.27;;;;;;;14.03;40.00;98278.94;6537085;21;20000;-88
2024/04/19 01:03:16;;;;;;;2.42;1.33;;;;;;;14.02;40.03;98285.16;6583204;21;20000;-87
2024/04/19 01:05:41;;;;;;;2.03;1.30;;;;;;;13.99;39.58;98277.59;6581264;21;19993;-88
2024/04/19 01:08:07;;;;;;;2.13;1.27;;;;;;;13.92;39.89;98275.56;6535061;21;20006;-87
2024/04/19 01:10:32;;;;;;;4.22;1.38;;;;;;;13.97;39.90;98275.13;6535607;21;20008;-87
2024/04/19 01:12:58;;;;;;;3.95;1.40;;;;;;;13.94;39.61;98272.78;6579418;21;20071;-87
2024/04/19 01:15:23;;;;;;;2.20;1.30;;;;;;;13.94;39.67;98270.97;6539717;21;20004;-88
2024/04/19 01:17:50;;;;;;;2.70;1.35;;;;;;;13.89;39.84;98268.00;6535895;21;19988;-88
2024/04/19 01:20:16;;;;;;;3.72;1.50;;;;;;;13.88;39.63;98279.47;6533766;21;20066;-88
2024/04/19 01:22:42;;;;;;;2.38;1.25;;;;;;;13.85;39.63;98276.31;6491599;21;19992;-87
2024/04/19 01:25:11;;;;;;;1.73;1.25;;;;;;;13.82;39.90;98271.34;6490929;21;20123;-88
2024/04/19 01:27:37;;;;;;;3.45;1.63;;;;;;;13.78;40.43;98273.47;6536708;21;19995;-84
2024/04/19 01:30:02;;;;;;;5.00;1.40;;;;;;;13.77;40.88;98278.84;6537442;21;19988;-85
2024/04/19 01:32:28;;;;;;;2.97;1.58;;;;;;;13.71;40.72;98282.88;6493410;21;20001;-86
2024/04/19 01:34:54;;;;;;;2.00;1.30;;;;;;;13.69;41.10;98280.41;6578494;21;19988;-86
2024/04/19 01:37:20;;;;;;;2.90;1.80;;;;;;;13.66;41.07;98287.75;6536459;21;19993;-85
2024/04/19 01:39:46;;;;;;;3.20;1.52;;;;;;;13.65;41.01;98280.88;6493288;21;19996;-86
2024/04/19 01:42:11;;;;;;;3.05;1.40;;;;;;;13.54;41.55;98274.03;6578385;21;20705;-86
2024/04/19 01:44:37;;;;;;;2.35;1.50;;;;;;;13.53;41.77;98286.31;6532992;21;20008;-85
2024/04/19 01:47:02;;;;;;;2.10;1.50;;;;;;;13.48;41.81;98278.06;6578400;21;19992;-86
2024/04/19 01:49:28;;;;;;;2.40;1.67;;;;;;;13.49;42.15;98284.97;6536098;21;20011;-86
2024/04/19 01:51:53;;;;;;;2.00;1.30;;;;;;;13.40;41.84;98283.22;6581701;21;19992;-86
2024/04/19 01:54:19;;;;;;;5.45;1.40;;;;;;;13.43;42.26;98296.03;6493568;21;20007;-87
2024/04/19 01:56:44;;;;;;;2.22;1.40;;;;;;;13.37;42.36;98279.06;6493513;21;20474;-87
2024/04/19 01:59:10;;;;;;;2.67;1.48;;;;;;;13.38;42.48;98293.03;6579272;21;20002;-87
2024/04/19 02:01:35;;;;;;;2.17;1.50;;;;;;;13.33;42.56;98285.59;6537474;21;20285;-87
2024/04/19 02:04:04;;;;;;;4.25;1.48;;;;;;;13.32;42.80;98293.56;6537263;21;19992;-88
2024/04/19 02:06:30;;;;;;;2.55;1.55;;;;;;;13.30;42.77;98295.50;6492738;21;19997;-87
2024/04/19 02:08:55;;;;;;;3.42;1.30;;;;;;;13.25;42.83;98301.19;6577109;21;20070;-87
2024/04/19 02:11:21;;;;;;;3.40;1.40;;;;;;;13.27;42.85;98301.88;6576874;21;20000;-86
2024/04/19 02:13:46;;;;;;;5.18;2.92;;;;;;;13.23;42.93;98310.97;6534147;21;20277;-86
2024/04/19 02:16:12;;;;;;;11.48;6.95;;;;;;;13.16;42.82;98299.44;6536884;21;20001;-85
2024/04/19 02:18:37;;;;;;;23.00;11.63;;;;;;;13.12;43.18;98300.69;6536348;21;20408;-84
2024/04/19 02:21:03;;;;;;;25.80;15.73;;;;;;;13.06;43.40;98301.25;6536177;21;20011;-84
2024/04/19 02:23:35;;;;;;;29.80;16.73;;;;;;;13.05;43.73;98308.31;6536821;21;20395;-85
2024/04/19 02:26:04;;;;;;;26.85;16.00;;;;;;;13.05;43.73;98310.94;6579298;21;19988;-85
2024/04/19 02:31:14;;;;;;;22.50;13.27;;;;;;;12.98;43.67;98308.06;6544167;21;20003;-86
2024/04/19 02:33:41;;;;;;;19.20;11.35;;;;;;;12.93;43.64;98302.41;6580003;21;19992;-86
2024/04/19 02:36:09;;;;;;;16.30;9.55;;;;;;;12.92;43.79;98310.41;6535813;21;19992;-85
2024/04/19 02:38:36;;;;;;;14.25;8.55;;;;;;;12.85;43.59;98305.72;6580051;21;20013;-87
2024/04/19 02:41:01;;;;;;;10.73;6.47;;;;;;;12.85;43.55;98313.59;6580115;21;20005;-90
2024/04/19 02:43:27;;;;;;;10.38;6.47;;;;;;;12.80;43.50;98305.34;6537442;21;20007;-87
2024/04/19 02:45:53;;;;;;;8.98;5.68;;;;;;;12.80;42.86;98300.09;6579977;21;20494;-88
2024/04/19 02:48:21;;;;;;;7.22;4.60;;;;;;;12.74;42.89;98291.97;6494319;21;19997;-88
2024/04/19 02:50:50;;;;;;;6.25;3.78;;;;;;;12.78;42.85;98302.03;6536396;21;20001;-88
2024/04/19 02:53:15;;;;;;;;;;;;;;;12.77;43.03;98302.19;6538081;21;20284;-89
2024/04/19 02:55:41;;;;;;;6.28;3.20;;;;;;;12.71;43.15;98300.13;6580321;21;19928;-89
2024/04/19 02:58:07;;;;;;;4.43;2.80;;;;;;;12.67;42.94;98296.97;6578354;21;19989;-88
2024/04/19 03:00:32;;;;;;;3.40;2.33;;;;;;;12.70;42.84;98306.31;6493679;21;20007;-88
2024/04/19 03:03:00;;;;;;;5.40;2.40;;;;;;;12.68;42.88;98306.47;6537051;21;19996;-89
2024/04/19 03:05:29;;;;;;;3.97;2.10;;;;;;;12.70;42.82;98314.16;6580941;21;20013;-89
2024/04/19 03:07:55;;;;;;;;;;;;;;;12.68;42.94;98306.47;6581432;21;20011;-89
2024/04/19 03:10:20;;;;;;;4.72;1.67;;;;;;;12.61;42.72;98311.44;6579673;21;19922;-87
2024/04/19 03:12:49;;;;;;;3.75;1.67;;;;;;;12.56;42.84;98308.41;6537440;21;19989;-89
2024/04/19 03:15:15;;;;;;;2.35;1.80;;;;;;;12.54;42.96;98309.50;6491881;21;19992;-87
2024/04/19 03:17:42;;;;;;;2.45;1.70;;;;;;;12.51;43.14;98305.41;6536433;21;19993;-88
2024/04/19 03:20:09;;;;;;;2.13;1.40;;;;;;;12.52;42.99;98307.03;6592154;21;20004;-87
2024/04/19 03:22:34;;;;;;;2.55;1.45;;;;;;;12.52;43.10;98311.47;6536316;21;20028;-87
2024/04/19 03:25:00;;;;;;;2.03;1.30;;;;;;;12.46;43.06;98315.44;6536633;21;19989;-90
2024/04/19 03:27:27;;;;;;;2.08;1.33;;;;;;;12.45;43.31;98316.44;6538569;21;20070;-88
2024/04/19 03:29:54;;;;;;;1.92;1.33;;;;;;;12.44;43.23;98312.97;6545179;21;20269;-87
2024/04/19 03:32:25;;;;;;;2.23;1.47;;;;;;;12.51;43.88;98330.72;6590662;21;20029;-87
2024/04/19 03:34:52;;;;;;;3.55;1.58;;;;;;;12.79;42.86;98321.19;6544540;21;20006;-89
2024/04/19 03:37:19;;;;;;;2.40;1.50;;;;;;;13.17;42.09;98328.13;6585644;21;20077;-89
2024/04/19 03:39:45;;;;;;;2.40;1.40;;;;;;;13.57;41.35;98334.06;6498358;21;20385;-90
2024/04/19 03:42:12;;;;;;;2.83;1.55;;;;;;;13.54;41.16;98323.84;6585828;21;20000;-87
2024/04/19 03:47:24;;;;;;;4.28;1.45;;;;;;;13.29;41.80;98344.47;6586868;21;20476;-86
2024/04/19 03:49:50;;;;;;;1.95;1.30;;;;;;;13.41;42.05;98353.03;6580386;21;20008;-83
2024/04/19 03:52:15;;;;;;;2.90;1.77;;;;;;;14.59;48.14;98353.91;6581750;21;20119;-88
2024/04/19 03:54:41;;;;;;;7.28;1.70;;;;;;;15.68;42.27;98338.63;6581688;21;20005;-86
2024/04/19 03:57:10;;;;;;;2.50;1.27;;;;;;;16.62;40.02;98345.38;6588151;21;19999;-87
2024/04/19 03:59:35;;;;;;;2.65;1.23;;;;;;;17.52;37.74;98347.03;6545329;21;20020;-82
2024/04/19 04:02:02;;;;;;;2.63;1.55;;;;;;;18.41;35.61;98351.19;6587536;21;20047;-86
2024/04/19 04:04:28;;;;;;;3.47;1.52;;;;;;;19.43;35.16;98352.56;6538390;21;20033;-83
2024/04/19 04:06:53;;;;;;;1.83;1.40;;;;;;;20.33;32.38;98351.38;6536598;21;19997;-84
2024/04/19 04:09:19;;;;;;;3.60;1.33;;;;;;;21.18;30.25;98348.00;6536215;21;20285;-85
2024/04/19 04:11:44;;;;;;;2.95;1.20;;;;;;;22.02;28.50;98346.97;6496707;21;20120;-83
2024/04/19 04:14:10;;;;;;;1.77;1.17;;;;;;;22.83;26.77;98359.34;6539380;21;20415;-83
2024/04/19 04:16:35;;;;;;;2.90;1.35;;;;;;;23.71;31.25;98355.50;6536815;21;20070;-83
2024/04/19 04:19:02;;;;;;;4.40;1.48;;;;;;;24.55;26.39;98356.28;6540624;21;19989;-84
2024/04/19 04:21:28;;;;;;;4.13;1.20;;;;;;;25.35;24.88;98352.16;6541767;21;20008;-85
2024/04/19 04:23:53;;;;;;;2.42;1.00;;;;;;;25.96;23.68;98347.69;6583589;21;20004;-80
2024/04/19 04:26:19;;;;;;;1.65;0.95;;;;;;;26.69;22.21;98361.09;6499019;21;20407;-84
2024/04/19 04:28:44;;;;;;;1.33;0.85;;;;;;;27.37;21.66;98357.06;6493444;21;20073;-83
2024/04/19 04:31:10;;;;;;;0.98;0.70;;;;;;;28.05;20.50;98354.66;6538923;21;19992;-87
2024/04/19 04:33:36;;;;;;;1.48;0.82;;;;;;;28.81;19.79;98361.59;6540965;21;19992;-80
2024/04/19 04:36:02;;;;;;;2.20;0.80;;;;;;;29.51;18.93;98360.19;6582714;21;20458;-77
2024/04/19 04:38:30;;;;;;;5.30;0.93;;;;;;;30.16;18.32;98359.56;6578494;21;19988;-81
2024/04/19 04:40:55;;;;;;;3.08;0.93;;;;;;;30.74;17.48;98363.38;6535964;21;19988;-82
2024/04/19 04:43:21;;;;;;;2.03;0.90;;;;;;;31.30;17.58;98372.91;6579164;21;20367;-78
2024/04/19 04:45:46;;;;;;;4.72;0.80;;;;;;;31.90;16.93;98376.97;6577388;21;20081;-80
2024/04/19 04:48:12;;;;;;;5.40;0.95;;;;;;;32.51;16.41;98370.06;6491728;21;19988;-82
2024/04/19 04:50:37;;;;;;;3.95;0.95;;;;;;;31.63;16.98;98387.09;6537745;21;20359;-78
2024/04/19 04:53:03;;;;;;;5.50;0.70;;;;;;;30.47;17.45;98387.63;6537221;21;20000;-79
2024/04/19 04:55:32;;;;;;;2.97;1.00;;;;;;;28.97;19.31;98384.13;6581860;21;19988;-81
2024/04/19 04:57:58;;;;;;;4.20;1.05;;;;;;;27.63;20.78;98379.03;6584539;21;20392;-85
2024/04/19 05:00:28;;;;;;;5.13;1.83;;;;;;;26.82;21.17;98398.38;6539932;21;19992;-80
2024/04/19 05:02:57;;;;;;;5.43;3.60;;;;;;;27.85;20.83;98386.41;6582141;21;20044;-81
2024/04/19 05:05:23;;;;;;;11.30;7.72;;;;;;;29.61;19.46;98388.28;6495025;21;20003;-79
2024/04/19 05:07:48;;;;;;;13.75;9.00;;;;;;;28.37;20.24;98389.06;6537743;21;20021;-80
2024/04/19 05:10:13;;;;;;;13.98;8.20;;;;;;;27.80;21.06;98403.25;6538417;21;20282;-80
2024/04/19 05:12:39;;;;;;;13.32;6.93;;;;;;;27.39;21.19;98410.38;6582268;21;20019;-79
2024/04/19 05:15:05;;;;;;;10.25;5.38;;;;;;;28.45;20.35;98401.25;6581207;21;20459;-78
2024/04/19 05:17:32;;;;;;;7.40;5.30;;;;;;;28.14;20.90;98400.69;6538296;21;20003;-79
2024/04/19 05:19:57;;;;;;;5.40;4.40;;;;;;;28.69;19.81;98400.09;6538858;21;20038;-80
2024/04/19 05:22:22;;;;;;;10.00;3.92;;;;;;;30.43;17.82;98408.09;6538695;21;19993;-81
2024/04/19 05:24:48;;;;;;;7.50;4.10;;;;;;;30.64;17.75;98401.00;6495805;21;20385;-80
2024/04/19 05:27:13;;;;;;;8.63;3.80;;;;;;;29.33;18.75;98414.25;6496686;21;20000;-79
2024/04/19 05:29:39;;;;;;;11.32;7.90;;;;;;;29.11;19.15;98409.59;6538172;21;19989;-81
2024/04/19 05:32:05;;;;;;;16.90;10.57;;;;;;;30.60;18.30;98421.41;6537382;21;19995;-81
2024/04/19 05:34:30;;;;;;;7.47;3.63;;;;;;;31.82;22.69;98417.13;6585998;21;19992;-80
2024/04/19 05:36:56;;;;;;;5.30;3.53;;;;;;;33.04;21.15;98420.38;6495437;21;19996;-82
2024/04/19 05:39:21;;;;;;;9.55;4.68;;;;;;;34.13;19.41;98424.38;6538119;21;20128;-81
2024/04/19 05:41:47;;;;;;;4.22;3.30;;;;;;;34.94;17.90;98423.03;6539131;21;19992;-81
2024/04/19 05:44:18;;;;;;;4.20;3.50;;;;;;;35.58;17.61;98425.69;6494499;21;20120;-80
2024/04/19 05:46:45;;;;;;;4.63;3.55;;;;;;;36.15;16.42;98436.69;6543084;21;20335;-81
2024/04/19 05:49:11;;;;;;;3.75;2.70;;;;;;;36.60;15.24;98435.50;6537793;21;20004;-86
2024/04/19 05:51:36;;;;;;;2.95;2.42;;;;;;;37.00;15.67;98435.97;6538046;21;20067;-82
2024/04/19 05:54:04;;;;;;;5.45;2.40;;;;;;;37.37;15.44;98431.50;6497839;21;20392;-84
2024/04/19 05:56:30;;;;;;;6.30;2.20;;;;;;;37.66;14.96;98436.66;6544576;21;20024;-89
2024/04/19 05:58:57;;;;;;;6.70;2.22;;;;;;;37.89;14.43;98428.59;6497584;21;19989;-82
2024/04/19 06:01:25;;;;;;;5.95;2.70;;;;;;;38.04;14.95;98435.66;6537973;21;20389;-82
2024/04/19 06:03:51;;;;;;;4.20;2.10;;;;;;;38.19;14.38;98433.44;6495901;21;20007;-82
2024/04/19 06:06:17;;;;;;;2.83;1.70;;;;;;;38.16;14.25;98442.22;6579800;21;20016;-82
2024/04/19 06:08:42;;;;;;;4.88;1.70;;;;;;;38.13;15.28;98431.06;6539090;21;20008;-81
2024/04/19 06:11:08;;;;;;;9.50;2.10;;;;;;;38.10;14.79;98437.16;6537887;21;19996;-78
2024/04/19 06:13:33;;;;;;;9.75;1.90;;;;;;;37.62;14.95;98435.66;6537477;21;19997;-80
2024/04/19 06:15:59;;;;;;;15.40;2.00;;;;;;;36.97;16.19;98440.09;6494815;21;19996;-77
2024/04/19 06:18:24;;;;;;;18.92;2.05;;;;;;;37.43;15.84;98441.19;6579509;21;20000;-78
2024/04/19 06:20:50;;;;;;;21.38;1.67;;;;;;;37.61;15.11;98443.03;6536208;21;20007;-80
2024/04/19 06:23:15;;;;;;;6.68;1.50;;;;;;;37.15;15.13;98435.69;6494429;21;19989;-80
2024/04/19 06:25:41;;;;;;;18.67;1.63;;;;;;;36.33;15.96;98448.66;6494386;21;19998;-78
2024/04/19 06:28:06;;;;;;;7.47;1.90;;;;;;;36.57;15.14;98447.78;6497100;21;19992;-79
2024/04/19 06:30:32;;;;;;;6.35;2.47;;;;;;;36.69;14.66;98448.13;6495271;21;19989;-79
2024/04/19 06:32:57;;;;;;;9.20;2.53;;;;;;;36.75;14.35;98447.00;6494007;21;20003;-81
2024/04/19 06:35:23;;;;;;;8.15;3.10;;;;;;;36.57;14.71;98450.50;6494619;21;19995;-79
2024/04/19 06:37:48;;;;;;;5.53;3.20;;;;;;;36.01;14.77;98454.81;6536996;21;20432;-80
2024/04/19 06:40:14;;;;;;;9.48;3.10;;;;;;;36.01;14.34;98450.16;6492975;21;20058;-80
2024/04/19 06:42:40;;;;;;;9.25;3.08;;;;;;;36.09;14.38;98459.56;6495248;21;19992;-79
2024/04/19 06:45:06;;;;;;;6.47;2.78;;;;;;;36.15;13.81;98450.25;6494819;21;19992;-81
2024/04/19 06:47:31;;;;;;;6.63;2.53;;;;;;;35.38;14.54;98455.78;6537349;21;20376;-79
2024/04/19 06:49:57;;;;;;;8.13;2.00;;;;;;;34.50;14.99;98463.75;6494328;21;20011;-77
2024/04/19 06:52:23;;;;;;;6.38;1.92;;;;;;;33.68;15.22;98462.19;6494726;21;20004;-77
2024/04/19 06:54:48;;;;;;;4.68;2.30;;;;;;;32.72;16.79;98467.38;6493869;21;20011;-78
2024/04/19 06:57:14;;;;;;;7.70;2.40;;;;;;;32.37;17.27;98468.91;6579864;21;19993;-78
2024/04/19 06:59:41;;;;;;;6.20;2.30;;;;;;;31.91;17.35;98467.66;6537526;21;20006;-79
2024/04/19 07:02:07;;;;;;;5.78;2.60;;;;;;;31.61;18.40;98464.81;6537350;21;20003;-79
2024/04/19 07:04:32;;;;;;;13.85;2.83;;;;;;;31.18;19.00;98460.19;6535622;21;19992;-77
2024/04/19 07:06:58;;;;;;;7.50;2.15;;;;;;;30.90;19.23;98464.00;6536831;21;19993;-79
2024/04/19 07:09:23;;;;;;;8.13;2.70;;;;;;;30.55;19.87;98462.56;6535776;21;19989;-78
2024/04/19 07:11:49;;;;;;;6.80;2.20;;;;;;;30.24;20.75;98467.63;6536894;21;20062;-79
2024/04/19 07:14:14;;;;;;;8.00;3.03;;;;;;;29.49;21.66;98469.03;6579390;21;19988;-81
2024/04/19 07:16:40;;;;;;;6.28;2.97;;;;;;;29.63;21.79;98467.63;6543095;21;19999;-80
2024/04/19 07:19:05;;;;;;;6.60;2.58;;;;;;;30.19;20.96;98477.50;6539109;21;19996;-85
2024/04/19 07:21:31;;;;;;;7.10;2.92;;;;;;;30.71;21.06;98460.88;6538223;21;20335;-85
2024/04/19 07:23:56;;;;;;;4.43;2.88;;;;;;;31.28;20.07;98466.72;6582122;21;20003;-87
2024/04/19 07:26:22;;;;;;;8.23;3.03;;;;;;;30.73;20.55;98469.50;6538494;21;20054;-83
2024/04/19 07:28:47;;;;;;;6.07;2.92;;;;;;;30.87;20.53;98466.38;6581609;21;19988;-79
2024/04/19 07:31:14;;;;;;;6.75;2.30;;;;;;;31.21;19.06;98470.44;6537156;21;20364;-81
2024/04/19 07:33:39;;;;;;;7.00;2.50;;;;;;;31.90;18.38;98470.63;6494158;21;20024;-82
2024/04/19 07:36:05;;;;;;;9.82;2.20;;;;;;;32.24;17.71;98462.13;6535952;21;19998;-82
2024/04/19 07:38:30;;;;;;;4.75;2.08;;;;;;;32.61;18.02;98464.66;6493963;21;20284;-80
2024/04/19 07:41:02;;;;;;;5.07;2.00;;;;;;;32.31;18.08;98472.66;6537511;21;20061;-83
2024/04/19 07:43:28;;;;;;;6.13;2.05;;;;;;;32.21;17.98;98463.50;6537516;21;20281;-81
2024/04/19 07:45:53;;;;;;;7.85;2.20;;;;;;;32.25;18.19;98464.56;6580648;21;19996;-84
2024/04/19 07:48:19;;;;;;;5.40;2.30;;;;;;;32.23;17.91;98466.72;6537806;21;19989;-82
2024/04/19 07:50:45;;;;;;;5.35;2.30;;;;;;;32.15;17.78;98455.63;6580974;21;19992;-82
2024/04/19 07:53:11;;;;;;;5.80;2.38;;;;;;;32.33;18.00;98457.03;6537168;21;20012;-83
2024/04/19 07:55:40;;;;;;;6.65;2.42;;;;;;;31.96;18.42;98450.69;6580910;21;20000;-84
2024/04/19 07:58:05;;;;;;;9.40;2.45;;;;;;;31.64;20.27;98448.09;6536883;21;20004;-81
2024/04/19 08:00:31;;;;;;;7.53;2.30;;;;;;;31.47;18.85;98446.38;6581460;21;19988;-80
2024/04/19 08:02:56;;;;;;;6.13;2.22;;;;;;;31.58;17.92;98451.84;6578834;21;20004;-84
2024/04/19 08:05:23;;;;;;;9.52;2.10;;;;;;;31.16;19.09;98446.16;6598614;21;19993;-84
2024/04/19 08:07:50;;;;;;;6.00;2.45;;;;;;;31.16;18.47;98446.16;6519900;21;20000;-81
2024/04/19 08:10:16;;;;;;;4.00;2.13;;;;;;;31.72;18.34;98452.97;6597884;21;20000;-78
2024/04/19 08:17:56;;;;;;;3.75;2.08;;;;;;;32.28;17.83;98455.94;6461082;21;20318;-79
2024/04/19 08:20:21;;;;;;;4.43;2.08;;;;;;;32.36;17.64;98449.19;6484614;22;19993;-81
2024/04/19 08:22:47;;;;;;;5.25;1.80;;;;;;;32.39;17.67;98448.66;6483966;22;19997;-80
2024/04/19 08:25:12;;;;;;;10.25;2.47;;;;;;;32.32;18.24;98455.41;6484567;22;20454;-80
2024/04/19 08:27:38;;;;;;;6.32;2.10;;;;;;;32.27;16.96;98443.50;6484521;22;19993;-80
2024/04/19 08:30:03;;;;;;;10.00;2.17;;;;;;;32.35;18.95;98433.25;6484031;22;20000;-80
2024/04/19 08:32:29;;;;;;;14.82;2.30;;;;;;;32.50;17.24;98443.28;6529583;22;20004;-82
2024/04/19 08:34:56;;;;;;;12.25;2.55;;;;;;;32.51;17.51;98445.72;6484612;22;20004;-81
2024/04/19 08:37:22;;;;;;;8.57;1.90;;;;;;;32.48;18.19;98438.13;6484170;22;20340;-80
2024/04/19 08:39:51;;;;;;;9.00;2.17;;;;;;;32.50;18.62;98427.06;6443252;22;20316;-85
2024/04/19 08:42:16;;;;;;;10.85;2.15;;;;;;;32.54;18.32;98434.38;6447571;22;19989;-87
2024/04/19 08:44:44;;;;;;;5.43;1.98;;;;;;;32.61;17.12;98431.41;6491888;22;19993;-88
2024/04/19 08:47:14;;;;;;;15.65;2.00;;;;;;;32.54;17.01;98425.47;6490774;22;20030;-83
2024/04/19 08:49:40;;;;;;;8.50;2.05;;;;;;;31.96;17.34;98418.28;6448943;22;19993;-86
2024/04/19 08:52:07;;;;;;;10.25;2.03;;;;;;;31.91;17.77;98413.69;6498724;21;20009;-88
2024/04/19 08:54:33;;;;;;;5.45;1.60;;;;;;;31.95;18.00;98410.47;6491932;22;20041;-82
2024/04/19 08:56:59;;;;;;;5.65;1.67;;;;;;;31.49;18.41;98417.25;6487462;22;20008;-83
2024/04/19 08:59:24;;;;;;;8.27;1.70;;;;;;;31.37;17.94;98411.22;6486076;22;19997;-84
2024/04/19 09:01:50;;;;;;;4.05;1.45;;;;;;;31.07;17.84;98401.88;6485126;22;20301;-85
2024/04/19 09:04:15;;;;;;;3.42;1.50;;;;;;;30.88;18.75;98401.44;6444617;22;19993;-86
2024/04/19 09:06:42;;;;;;;7.32;1.55;;;;;;;30.23;18.31;98411.34;6498513;22;20013;-89
2024/04/19 09:09:08;;;;;;;7.78;1.90;;;;;;;30.20;18.55;98403.78;6489979;22;20000;-90
2024/04/19 09:11:37;;;;;;;7.82;1.45;;;;;;;30.01;19.75;98398.72;6404533;22;19997;-87
2024/04/19 09:14:03;;;;;;;7.93;1.60;;;;;;;29.87;20.07;98402.88;6540994;21;20020;-81
2024/04/19 09:16:31;;;;;;;2.30;1.30;;;;;;;29.65;21.07;98406.34;6537108;21;20003;-83
2024/04/19 09:18:57;;;;;;;5.97;1.90;;;;;;;29.17;21.93;98397.88;6500242;21;19992;-89
2024/04/19 09:21:22;;;;;;;5.93;1.40;;;;;;;29.20;21.32;98397.41;6496428;21;20029;-82
2024/04/19 09:23:48;;;;;;;2.60;1.10;;;;;;;29.21;18.87;98399.03;6494111;21;20430;-84
2024/04/19 09:26:13;;;;;;;4.10;1.40;;;;;;;29.23;18.94;98398.78;6498101;21;19992;-85
2024/04/19 09:28:39;;;;;;;3.35;1.08;;;;;;;29.27;19.19;98385.66;6542071;21;19992;-88
2024/04/19 09:31:04;;;;;;;3.42;0.90;;;;;;;29.29;20.17;98388.91;6502626;21;20004;-88
2024/04/19 09:33:30;;;;;;;4.28;1.10;;;;;;;29.21;21.16;98388.28;6501597;21;19980;-87
2024/04/19 09:35:56;;;;;;;5.80;0.98;;;;;;;29.12;20.70;98387.03;6545760;21;19999;-90
2024/04/19 09:38:22;;;;;;;3.67;1.00;;;;;;;29.16;21.37;98381.97;6461261;21;20013;-88
2024/04/19 09:40:48;;;;;;;6.55;1.60;;;;;;;29.09;21.52;98378.66;6548792;21;20063;-88
2024/04/19 09:43:22;;;;;;;5.60;1.33;;;;;;;28.99;20.94;98382.84;6547657;21;20000;-84
2024/04/19 09:45:53;;;;;;;5.95;1.25;;;;;;;28.78;21.18;98373.66;6549417;21;19997;-90
2024/04/19 09:48:19;;;;;;;4.22;1.38;;;;;;;28.42;22.24;98372.22;6507177;21;19996;-90
2024/04/19 09:50:51;;;;;;;4.05;1.20;;;;;;;28.37;22.01;98374.78;6549174;21;20000;-89
2024/04/19 09:53:28;;;;;;;5.57;1.77;;;;;;;28.15;22.81;98370.13;6508217;21;19988;-88
2024/04/19 09:56:06;;;;;;;5.35;1.40;;;;;;;27.95;22.83;98363.31;6557677;21;19997;-90
2024/04/19 09:58:31;;;;;;;;;;;;;;;27.92;22.82;98368.31;6596682;21;19992;-88
2024/04/19 10:00:57;;;;;;;2.53;1.00;;;;;;;27.77;22.50;98372.34;6548465;21;19928;-89
2024/04/19 10:03:22;;;;;;;7.10;1.20;;;;;;;27.66;21.36;98358.94;6546321;21;20003;-92
2024/04/19 10:05:48;;;;;;;4.60;1.13;;;;;;;27.64;21.71;98358.38;6507832;21;19988;-85
2024/04/19 10:08:13;;;;;;;3.10;1.10;;;;;;;27.52;22.54;98361.09;6549473;21;19988;-88
2024/04/19 10:10:39;;;;;;;4.90;1.05;;;;;;;27.48;22.41;98362.63;6499613;21;20066;-85
2024/04/19 10:13:04;;;;;;;5.72;1.10;;;;;;;27.44;22.73;98354.25;6547201;21;20004;-82
2024/04/19 10:15:30;;;;;;;2.05;1.00;;;;;;;27.34;22.96;98345.97;6558963;21;19999;-87
2024/04/19 10:17:55;;;;;;;2.58;1.30;;;;;;;27.13;23.26;98334.78;6510812;21;20399;-90
2024/04/19 10:20:22;;;;;;;1.70;0.80;;;;;;;26.99;22.93;98344.13;6552621;21;19992;-83
2024/04/19 10:22:51;;;;;;;2.80;1.05;;;;;;;26.90;23.28;98349.03;6548672;21;19987;-83
2024/04/19 10:25:20;;;;;;;2.97;1.08;;;;;;;26.58;23.71;98349.28;6547437;21;19998;-84
2024/04/19 10:27:46;;;;;;;3.45;1.00;;;;;;;26.46;24.10;98348.47;6591677;21;20373;-82
2024/04/19 10:30:13;;;;;;;2.20;1.10;;;;;;;26.30;24.56;98337.38;6590566;21;19991;-81
2024/04/19 10:32:38;;;;;;;2.97;1.17;;;;;;;26.32;24.30;98340.63;6590948;21;19992;-82
2024/04/19 10:35:09;;;;;;;4.40;1.25;;;;;;;26.12;24.07;98338.22;6596827;21;19988;-83
2024/04/19 10:37:35;;;;;;;3.83;1.00;;;;;;;25.99;24.87;98341.91;6604127;21;19987;-84
2024/04/19 10:40:01;;;;;;;3.97;0.90;;;;;;;25.93;24.96;98337.44;6604014;21;20012;-83
2024/04/19 10:42:26;;;;;;;4.32;0.90;;;;;;;25.87;24.71;98337.53;6655180;21;19983;-82
2024/04/19 10:44:52;;;;;;;4.78;0.80;;;;;;;25.70;22.75;98343.50;6658390;21;20361;-81
2024/04/19 10:47:19;;;;;;;1.95;0.82;;;;;;;25.56;25.27;98334.84;6659313;21;20000;-82
2024/04/19 10:49:44;;;;;;;2.28;0.80;;;;;;;25.50;25.39;98332.25;6611859;21;19999;-81
2024/04/19 10:52:10;;;;;;;5.07;1.10;;;;;;;25.40;25.66;98330.09;6612896;21;19994;-83
2024/04/19 10:54:35;;;;;;;1.88;0.95;;;;;;;25.36;25.53;98332.38;6614259;21;20012;-82
2024/04/19 10:57:01;;;;;;;3.45;0.82;;;;;;;25.30;25.95;98327.13;6571070;21;19980;-83
2024/04/19 10:59:26;;;;;;;1.52;0.77;;;;;;;25.01;26.55;98321.44;6636923;21;20002;-84
2024/04/19 11:01:57;;;;;;;2.50;0.80;;;;;;;24.96;25.93;98318.63;6588900;21;20061;-86
2024/04/19 11:04:23;;;;;;;2.35;0.85;;;;;;;24.73;26.23;98323.53;6547272;21;19991;-85
2024/04/19 11:06:48;;;;;;;2.70;1.10;;;;;;;24.79;26.95;98321.84;6547580;21;20061;-88
2024/04/19 11:09:16;;;;;;;3.95;1.17;;;;;;;24.82;26.75;98309.91;6589645;21;19987;-84
2024/04/19 11:11:42;;;;;;;2.83;1.00;;;;;;;24.90;26.93;98312.31;6546872;21;19999;-85
2024/04/19 11:14:11;;;;;;;3.70;0.85;;;;;;;24.97;26.87;98305.06;6594845;21;19991;-93
2024/04/19 11:16:36;;;;;;;2.17;0.90;;;;;;;25.02;27.08;98304.41;6603800;21;19992;-84
2024/04/19 11:19:02;;;;;;;1.45;0.90;;;;;;;25.08;27.43;98308.81;6646547;21;20002;-84
2024/04/19 11:21:27;;;;;;;5.75;0.85;;;;;;;25.02;27.71;98301.72;6599566;21;20038;-88
2024/04/19 11:23:53;;;;;;;3.90;0.90;;;;;;;24.93;28.21;98303.84;6598143;21;19995;-85
2024/04/19 11:26:18;;;;;;;2.10;0.90;;;;;;;24.84;27.82;98302.50;6594963;21;19992;-87
2024/04/19 11:28:46;;;;;;;3.30;0.90;;;;;;;24.76;27.56;98302.78;6599713;21;20007;-89
2024/04/19 11:31:12;;;;;;;5.43;0.80;;;;;;;24.74;27.48;98301.13;6553523;21;20003;-87
2024/04/19 11:33:37;;;;;;;5.55;0.90;;;;;;;24.62;27.20;98291.41;6637059;21;20279;-85
2024/04/19 11:36:08;;;;;;;4.28;0.88;;;;;;;24.65;27.64;98301.66;6596046;21;19995;-86
2024/04/19 11:38:33;;;;;;;6.15;1.50;;;;;;;24.64;28.34;98295.50;6517428;21;19992;-91
2024/04/19 11:40:59;;;;;;;12.40;1.30;;;;;;;24.55;26.65;98297.59;6606183;21;20018;-79